Hlavní strana
METAR-TAF:

METAR-TAF

Letiště :

Šiauliai, Litva

zeměpisná šířka: 55-53-38N, zeměpisná délka: 023-23-42E, výška: 135 m

Aktuální stav počasí

Zpráva byla vytvořena před 26 minutami, v 06:50 UTC
Severní vítr 12 kt
Teplota 12°C
Vlhkost vzduchu 67%
Tlak 1024 hPa
Viditelnost 10 km a více
Žádná oblačnost pod 1500 m, nevyskytují se cumulonimby.

METAR: EYSA 290650Z 35012KT CAVOK 12/06 Q1024 BLU NOSIG

Čas: 10:16 (07:16 UTC)

Předpověď počasí

Zpráva byla vytvořena před 2 hodinami a 13 minutami, v 05:03 UTC
Předpověď platná od 29 v 06 UTC do 29 v 15 UTC
Severní vítr 14 kt
Viditelnost: 9000 m
Polojasno ve výšce 4000 ft
Změna
od 29 v 09 UTC do 29 v 10 UTC
Severní vítr 18 kt s nárazy do 28 kt

TAF: EYSA 290503Z 2906/2915 36014KT 9000 SCT040 BECMG 2909/2910 36018G28KT

Stav a předpovědi počasí z více než 4 000 letišť (zprávy METAR a TAF).

Červené a žluté tečky na mapě představují dostupné meteorologické stanice.

Když kurzor umístíte na tečku, zobrazí se název stanice.

Pak kliknutím zobrazíte stav a předpověď počasí.

Chcete-li změnit mapu, kliknutím na zelené tlačítko se znaménkem +mapu přiblížíte, kliknutím na zelené tlačítko se znaménkem – mapu oddálíte a kliknutím na zelené šipky přejdete na sousední mapy.


METAR-TAF: